sensor_id;sensor_type;location;lat;lon;timestamp;pressure;altitude;pressure_sealevel;temperature;humidity
83308;BME280;73223;48.584;13.460;2023-12-07T00:02:23;97023.69;;;0.76;100.00
83308;BME280;73223;48.584;13.460;2023-12-07T00:04:48;97028.00;;;0.80;100.00
83308;BME280;73223;48.584;13.460;2023-12-07T00:07:14;97026.38;;;0.88;100.00
83308;BME280;73223;48.584;13.460;2023-12-07T00:09:39;97038.97;;;0.75;100.00
83308;BME280;73223;48.584;13.460;2023-12-07T00:12:04;97031.50;;;0.93;100.00
83308;BME280;73223;48.584;13.460;2023-12-07T00:14:30;97034.81;;;0.81;100.00
83308;BME280;73223;48.584;13.460;2023-12-07T00:16:55;97040.78;;;0.82;100.00
83308;BME280;73223;48.584;13.460;2023-12-07T00:19:20;97040.06;;;0.98;100.00
83308;BME280;73223;48.584;13.460;2023-12-07T00:21:45;97049.00;;;0.58;100.00
83308;BME280;73223;48.584;13.460;2023-12-07T00:24:11;97040.00;;;0.89;100.00
83308;BME280;73223;48.584;13.460;2023-12-07T00:26:36;97044.84;;;0.64;100.00
83308;BME280;73223;48.584;13.460;2023-12-07T00:29:03;97049.25;;;0.79;100.00
83308;BME280;73223;48.584;13.460;2023-12-07T00:31:28;97051.88;;;0.85;100.00
83308;BME280;73223;48.584;13.460;2023-12-07T00:33:53;97044.16;;;0.81;100.00
83308;BME280;73223;48.584;13.460;2023-12-07T00:36:18;97046.94;;;1.02;100.00
83308;BME280;73223;48.584;13.460;2023-12-07T00:38:44;97045.34;;;1.16;100.00
83308;BME280;73223;48.584;13.460;2023-12-07T00:41:09;97045.19;;;0.98;100.00
83308;BME280;73223;48.584;13.460;2023-12-07T00:43:34;97047.69;;;0.93;100.00
83308;BME280;73223;48.584;13.460;2023-12-07T00:46:00;97051.22;;;1.09;100.00
83308;BME280;73223;48.584;13.460;2023-12-07T00:48:25;97059.25;;;0.61;100.00
83308;BME280;73223;48.584;13.460;2023-12-07T00:50:50;97051.09;;;0.95;100.00
83308;BME280;73223;48.584;13.460;2023-12-07T00:53:15;97059.22;;;0.58;100.00
83308;BME280;73223;48.584;13.460;2023-12-07T00:55:41;97062.50;;;0.48;100.00
83308;BME280;73223;48.584;13.460;2023-12-07T00:58:06;97051.56;;;0.58;100.00
83308;BME280;73223;48.584;13.460;2023-12-07T01:00:31;97054.06;;;0.52;100.00
83308;BME280;73223;48.584;13.460;2023-12-07T01:02:56;97059.25;;;0.62;100.00
83308;BME280;73223;48.584;13.460;2023-12-07T01:05:22;97059.91;;;0.45;100.00
83308;BME280;73223;48.584;13.460;2023-12-07T01:07:47;97065.94;;;0.50;100.00
83308;BME280;73223;48.584;13.460;2023-12-07T01:10:12;97061.84;;;0.65;100.00
83308;BME280;73223;48.584;13.460;2023-12-07T01:12:39;97065.94;;;0.50;100.00
83308;BME280;73223;48.584;13.460;2023-12-07T01:15:04;97065.53;;;0.19;100.00
83308;BME280;73223;48.584;13.460;2023-12-07T01:17:30;97062.28;;;0.29;100.00
83308;BME280;73223;48.584;13.460;2023-12-07T01:19:55;97069.28;;;0.46;100.00
83308;BME280;73223;48.584;13.460;2023-12-07T01:22:20;97070.19;;;0.49;100.00
83308;BME280;73223;48.584;13.460;2023-12-07T01:24:46;97068.56;;;0.59;100.00
83308;BME280;73223;48.584;13.460;2023-12-07T01:27:12;97066.94;;;0.64;100.00
83308;BME280;73223;48.584;13.460;2023-12-07T01:29:37;97074.66;;;0.70;100.00
83308;BME280;73223;48.584;13.460;2023-12-07T01:32:02;97071.88;;;0.49;100.00
83308;BME280;73223;48.584;13.460;2023-12-07T01:34:28;97078.75;;;0.57;100.00
83308;BME280;73223;48.584;13.460;2023-12-07T01:36:53;97081.38;;;0.63;100.00
83308;BME280;73223;48.584;13.460;2023-12-07T01:39:18;97085.81;;;0.78;100.00
83308;BME280;73223;48.584;13.460;2023-12-07T01:41:44;97085.31;;;0.37;100.00
83308;BME280;73223;48.584;13.460;2023-12-07T01:44:09;97089.59;;;0.40;100.00
83308;BME280;73223;48.584;13.460;2023-12-07T01:46:35;97092.97;;;0.39;100.00
83308;BME280;73223;48.584;13.460;2023-12-07T01:49:01;97094.03;;;0.53;100.00
83308;BME280;73223;48.584;13.460;2023-12-07T01:51:27;97095.72;;;0.52;100.00
83308;BME280;73223;48.584;13.460;2023-12-07T01:53:52;97101.63;;;0.50;100.00
83308;BME280;73223;48.584;13.460;2023-12-07T01:56:18;97090.03;;;0.76;100.00
83308;BME280;73223;48.584;13.460;2023-12-07T01:58:44;97093.19;;;0.55;100.00
83308;BME280;73223;48.584;13.460;2023-12-07T02:01:09;97089.31;;;0.86;100.00
83308;BME280;73223;48.584;13.460;2023-12-07T02:03:39;97092.94;;;1.07;100.00
83308;BME280;73223;48.584;13.460;2023-12-07T02:06:06;97090.91;;;0.80;100.00
83308;BME280;73223;48.584;13.460;2023-12-07T02:08:33;97092.66;;;0.82;100.00
83308;BME280;73223;48.584;13.460;2023-12-07T02:10:59;97084.66;;;1.35;100.00
83308;BME280;73223;48.584;13.460;2023-12-07T02:13:24;97095.25;;;0.87;100.00
83308;BME280;73223;48.584;13.460;2023-12-07T02:15:50;97094.88;;;1.33;100.00
83308;BME280;73223;48.584;13.460;2023-12-07T02:18:21;97092.84;;;0.99;100.00
83308;BME280;73223;48.584;13.460;2023-12-07T02:21:29;97099.13;;;0.56;100.00
83308;BME280;73223;48.584;13.460;2023-12-07T02:23:56;97091.91;;;0.94;100.00
83308;BME280;73223;48.584;13.460;2023-12-07T02:26:30;97089.38;;;0.95;100.00
83308;BME280;73223;48.584;13.460;2023-12-07T02:28:56;97089.47;;;1.01;100.00
83308;BME280;73223;48.584;13.460;2023-12-07T02:31:21;97092.59;;;0.78;100.00
83308;BME280;73223;48.584;13.460;2023-12-07T02:33:46;97094.44;;;0.88;100.00
83308;BME280;73223;48.584;13.460;2023-12-07T02:36:14;97097.66;;;0.75;100.00
83308;BME280;73223;48.584;13.460;2023-12-07T02:38:42;97093.47;;;0.80;100.00
83308;BME280;73223;48.584;13.460;2023-12-07T02:41:09;97095.91;;;0.69;100.00
83308;BME280;73223;48.584;13.460;2023-12-07T02:43:36;97100.84;;;0.55;100.00
83308;BME280;73223;48.584;13.460;2023-12-07T02:46:02;97105.91;;;0.51;100.00
83308;BME280;73223;48.584;13.460;2023-12-07T02:48:27;97109.53;;;0.73;100.00
83308;BME280;73223;48.584;13.460;2023-12-07T02:50:54;97107.19;;;0.91;100.00
83308;BME280;73223;48.584;13.460;2023-12-07T02:53:20;97118.00;;;0.67;100.00
83308;BME280;73223;48.584;13.460;2023-12-07T02:55:45;97124.34;;;0.31;100.00
83308;BME280;73223;48.584;13.460;2023-12-07T02:58:10;97113.94;;;0.83;100.00
83308;BME280;73223;48.584;13.460;2023-12-07T03:00:35;97112.69;;;0.50;100.00
83308;BME280;73223;48.584;13.460;2023-12-07T03:03:01;97126.94;;;0.34;100.00
83308;BME280;73223;48.584;13.460;2023-12-07T03:05:26;97119.75;;;0.74;100.00
83308;BME280;73223;48.584;13.460;2023-12-07T03:07:51;97135.53;;;0.43;100.00
83308;BME280;73223;48.584;13.460;2023-12-07T03:10:16;97130.03;;;0.79;100.00
83308;BME280;73223;48.584;13.460;2023-12-07T03:12:42;97130.53;;;0.49;100.00
83308;BME280;73223;48.584;13.460;2023-12-07T03:15:07;97142.25;;;0.38;100.00
83308;BME280;73223;48.584;13.460;2023-12-07T03:17:34;97140.63;;;0.41;100.00
83308;BME280;73223;48.584;13.460;2023-12-07T03:19:59;97135.59;;;0.47;100.00
83308;BME280;73223;48.584;13.460;2023-12-07T03:22:25;97140.09;;;0.65;100.00
83308;BME280;73223;48.584;13.460;2023-12-07T03:24:51;97133.03;;;0.46;100.00
83308;BME280;73223;48.584;13.460;2023-12-07T03:27:17;97139.63;;;0.98;100.00
83308;BME280;73223;48.584;13.460;2023-12-07T03:29:42;97139.13;;;0.58;100.00
83308;BME280;73223;48.584;13.460;2023-12-07T03:32:07;97151.59;;;0.37;100.00
83308;BME280;73223;48.584;13.460;2023-12-07T03:34:33;97149.34;;;0.60;100.00
83308;BME280;73223;48.584;13.460;2023-12-07T03:36:58;97155.16;;;0.47;100.00
83308;BME280;73223;48.584;13.460;2023-12-07T03:39:23;97151.97;;;0.63;100.00
83308;BME280;73223;48.584;13.460;2023-12-07T03:41:50;97162.78;;;0.47;100.00
83308;BME280;73223;48.584;13.460;2023-12-07T03:44:15;97158.16;;;0.83;100.00
83308;BME280;73223;48.584;13.460;2023-12-07T03:46:41;97148.75;;;0.79;100.00
83308;BME280;73223;48.584;13.460;2023-12-07T03:49:06;97153.38;;;0.41;100.00
83308;BME280;73223;48.584;13.460;2023-12-07T03:51:31;97158.34;;;0.32;100.00
83308;BME280;73223;48.584;13.460;2023-12-07T03:53:57;97151.34;;;0.17;100.00
83308;BME280;73223;48.584;13.460;2023-12-07T03:56:26;97158.88;;;0.75;100.00
83308;BME280;73223;48.584;13.460;2023-12-07T03:58:51;97157.22;;;0.77;100.00
83308;BME280;73223;48.584;13.460;2023-12-07T04:01:17;97166.13;;;0.41;100.00
83308;BME280;73223;48.584;13.460;2023-12-07T04:03:42;97167.09;;;0.49;100.00
83308;BME280;73223;48.584;13.460;2023-12-07T04:06:08;97166.53;;;0.73;100.00
83308;BME280;73223;48.584;13.460;2023-12-07T04:08:34;97168.50;;;0.29;100.00
83308;BME280;73223;48.584;13.460;2023-12-07T04:10:59;97180.47;;;0.36;100.00
83308;BME280;73223;48.584;13.460;2023-12-07T04:13:24;97181.00;;;0.12;100.00
83308;BME280;73223;48.584;13.460;2023-12-07T04:15:49;97180.25;;;0.19;100.00
83308;BME280;73223;48.584;13.460;2023-12-07T04:18:15;97179.34;;;0.14;100.00
83308;BME280;73223;48.584;13.460;2023-12-07T04:20:41;97180.38;;;0.27;100.00
83308;BME280;73223;48.584;13.460;2023-12-07T04:23:06;97185.59;;;0.38;100.00
83308;BME280;73223;48.584;13.460;2023-12-07T04:25:31;97179.88;;;0.51;100.00
83308;BME280;73223;48.584;13.460;2023-12-07T04:27:57;97183.16;;;0.44;100.00
83308;BME280;73223;48.584;13.460;2023-12-07T04:30:22;97186.66;;;0.50;100.00
83308;BME280;73223;48.584;13.460;2023-12-07T04:32:47;97189.78;;;0.31;100.00
83308;BME280;73223;48.584;13.460;2023-12-07T04:35:13;97193.50;;;0.56;100.00
83308;BME280;73223;48.584;13.460;2023-12-07T04:37:38;97198.41;;;0.41;100.00
83308;BME280;73223;48.584;13.460;2023-12-07T04:40:04;97200.28;;;0.52;100.00
83308;BME280;73223;48.584;13.460;2023-12-07T04:42:30;97207.81;;;0.45;100.00
83308;BME280;73223;48.584;13.460;2023-12-07T04:44:55;97207.69;;;0.37;100.00
83308;BME280;73223;48.584;13.460;2023-12-07T04:47:20;97206.69;;;0.26;100.00
83308;BME280;73223;48.584;13.460;2023-12-07T04:49:46;97216.13;;;0.31;100.00
83308;BME280;73223;48.584;13.460;2023-12-07T04:52:11;97206.06;;;0.41;100.00
83308;BME280;73223;48.584;13.460;2023-12-07T04:54:37;97206.31;;;0.59;100.00
83308;BME280;73223;48.584;13.460;2023-12-07T04:57:02;97207.78;;;0.42;100.00
83308;BME280;73223;48.584;13.460;2023-12-07T04:59:27;97211.91;;;0.33;100.00
83308;BME280;73223;48.584;13.460;2023-12-07T05:01:53;97220.13;;;0.75;100.00
83308;BME280;73223;48.584;13.460;2023-12-07T05:04:18;97211.13;;;0.39;100.00
83308;BME280;73223;48.584;13.460;2023-12-07T05:06:43;97218.66;;;0.30;100.00
83308;BME280;73223;48.584;13.460;2023-12-07T05:09:09;97214.06;;;0.65;100.00
83308;BME280;73223;48.584;13.460;2023-12-07T05:11:37;97219.22;;;0.68;100.00
83308;BME280;73223;48.584;13.460;2023-12-07T05:14:03;97216.47;;;0.56;100.00
83308;BME280;73223;48.584;13.460;2023-12-07T05:16:29;97222.84;;;0.85;100.00
83308;BME280;73223;48.584;13.460;2023-12-07T05:18:54;97235.00;;;0.43;100.00
83308;BME280;73223;48.584;13.460;2023-12-07T05:21:20;97227.91;;;0.23;100.00
83308;BME280;73223;48.584;13.460;2023-12-07T05:23:46;97228.81;;;0.27;100.00
83308;BME280;73223;48.584;13.460;2023-12-07T05:26:11;97239.13;;;0.36;100.00
83308;BME280;73223;48.584;13.460;2023-12-07T05:28:36;97241.59;;;0.28;100.00
83308;BME280;73223;48.584;13.460;2023-12-07T05:31:02;97234.66;;;0.21;100.00
83308;BME280;73223;48.584;13.460;2023-12-07T05:33:27;97230.28;;;0.13;100.00
83308;BME280;73223;48.584;13.460;2023-12-07T05:35:52;97229.09;;;0.45;100.00
83308;BME280;73223;48.584;13.460;2023-12-07T05:38:18;97240.97;;;0.45;100.00
83308;BME280;73223;48.584;13.460;2023-12-07T05:40:43;97241.06;;;0.51;100.00
83308;BME280;73223;48.584;13.460;2023-12-07T05:43:08;97240.47;;;0.11;100.00
83308;BME280;73223;48.584;13.460;2023-12-07T05:45:34;97239.72;;;0.20;100.00
83308;BME280;73223;48.584;13.460;2023-12-07T05:47:59;97240.88;;;0.39;100.00
83308;BME280;73223;48.584;13.460;2023-12-07T05:50:24;97244.66;;;0.09;100.00
83308;BME280;73223;48.584;13.460;2023-12-07T05:52:49;97246.53;;;0.18;100.00
83308;BME280;73223;48.584;13.460;2023-12-07T05:55:15;97245.69;;;0.20;100.00
83308;BME280;73223;48.584;13.460;2023-12-07T05:57:40;97246.16;;;0.49;100.00
83308;BME280;73223;48.584;13.460;2023-12-07T06:00:06;97241.28;;;0.10;100.00
83308;BME280;73223;48.584;13.460;2023-12-07T06:02:35;97243.59;;;0.49;100.00
83308;BME280;73223;48.584;13.460;2023-12-07T06:05:01;97241.28;;;0.10;100.00
83308;BME280;73223;48.584;13.460;2023-12-07T06:07:29;97241.34;;;0.13;100.00
83308;BME280;73223;48.584;13.460;2023-12-07T06:09:54;97244.31;;;0.41;100.00
83308;BME280;73223;48.584;13.460;2023-12-07T06:12:20;97241.72;;;0.39;100.00
83308;BME280;73223;48.584;13.460;2023-12-07T06:14:47;97252.91;;;0.47;100.00
83308;BME280;73223;48.584;13.460;2023-12-07T06:17:12;97244.66;;;0.65;100.00
83308;BME280;73223;48.584;13.460;2023-12-07T06:19:37;97243.94;;;0.75;100.00
83308;BME280;73223;48.584;13.460;2023-12-07T06:22:03;97254.50;;;0.41;100.00
83308;BME280;73223;48.584;13.460;2023-12-07T06:24:28;97259.03;;;0.60;100.00
83308;BME280;73223;48.584;13.460;2023-12-07T06:26:53;97252.56;;;0.83;100.00
83308;BME280;73223;48.584;13.460;2023-12-07T06:29:19;97253.06;;;0.58;100.00
83308;BME280;73223;48.584;13.460;2023-12-07T06:31:44;97254.94;;;0.69;100.00
83308;BME280;73223;48.584;13.460;2023-12-07T06:34:10;97249.25;;;0.30;100.00
83308;BME280;73223;48.584;13.460;2023-12-07T06:36:35;97253.84;;;0.54;100.00
83308;BME280;73223;48.584;13.460;2023-12-07T06:39:01;97255.38;;;0.43;100.00
83308;BME280;73223;48.584;13.460;2023-12-07T06:41:26;97254.22;;;0.22;100.00
83308;BME280;73223;48.584;13.460;2023-12-07T06:43:52;97260.88;;;0.13;100.00
83308;BME280;73223;48.584;13.460;2023-12-07T06:46:17;97260.88;;;0.13;100.00
83308;BME280;73223;48.584;13.460;2023-12-07T06:48:42;97260.38;;;0.33;100.00
83308;BME280;73223;48.584;13.460;2023-12-07T06:51:08;97258.78;;;0.42;100.00
83308;BME280;73223;48.584;13.460;2023-12-07T06:53:33;97269.91;;;0.47;100.00
83308;BME280;73223;48.584;13.460;2023-12-07T06:55:58;97266.66;;;0.58;100.00
83308;BME280;73223;48.584;13.460;2023-12-07T06:58:24;97266.50;;;0.46;100.00
83308;BME280;73223;48.584;13.460;2023-12-07T07:00:49;97274.97;;;0.44;100.00
83308;BME280;73223;48.584;13.460;2023-12-07T07:03:15;97280.22;;;0.53;100.00
83308;BME280;73223;48.584;13.460;2023-12-07T07:05:41;97274.06;;;0.99;100.00
83308;BME280;73223;48.584;13.460;2023-12-07T07:08:06;97272.19;;;0.86;100.00
83308;BME280;73223;48.584;13.460;2023-12-07T07:10:33;97266.69;;;1.22;100.00
83308;BME280;73223;48.584;13.460;2023-12-07T07:13:02;97270.22;;;1.33;100.00
83308;BME280;73223;48.584;13.460;2023-12-07T07:15:30;97271.97;;;1.37;100.00
83308;BME280;73223;48.584;13.460;2023-12-07T07:17:55;97274.38;;;1.26;100.00
83308;BME280;73223;48.584;13.460;2023-12-07T07:20:20;97268.59;;;1.38;100.00
83308;BME280;73223;48.584;13.460;2023-12-07T07:22:46;97269.09;;;1.11;100.00
83308;BME280;73223;48.584;13.460;2023-12-07T07:25:11;97272.69;;;1.25;100.00
83308;BME280;73223;48.584;13.460;2023-12-07T07:27:37;97274.56;;;1.40;100.00
83308;BME280;73223;48.584;13.460;2023-12-07T07:30:03;97277.63;;;1.13;100.00
83308;BME280;73223;48.584;13.460;2023-12-07T07:32:29;97280.13;;;1.09;100.00
83308;BME280;73223;48.584;13.460;2023-12-07T07:34:54;97282.88;;;1.22;100.00
83308;BME280;73223;48.584;13.460;2023-12-07T07:37:20;97276.81;;;1.16;100.00
83308;BME280;73223;48.584;13.460;2023-12-07T07:39:45;97273.81;;;1.50;100.00
83308;BME280;73223;48.584;13.460;2023-12-07T07:42:11;97276.53;;;1.65;100.00
83308;BME280;73223;48.584;13.460;2023-12-07T07:44:37;97277.38;;;1.64;100.00
83308;BME280;73223;48.584;13.460;2023-12-07T07:47:02;97272.78;;;1.34;100.00
83308;BME280;73223;48.584;13.460;2023-12-07T07:49:27;97272.22;;;1.61;100.00
83308;BME280;73223;48.584;13.460;2023-12-07T07:51:52;97275.91;;;1.85;100.00
83308;BME280;73223;48.584;13.460;2023-12-07T07:54:18;97282.13;;;3.40;100.00
83308;BME280;73223;48.584;13.460;2023-12-07T07:56:43;97273.69;;;3.74;100.00
83308;BME280;73223;48.584;13.460;2023-12-07T07:59:08;97262.41;;;3.30;100.00
83308;BME280;73223;48.584;13.460;2023-12-07T08:01:33;97274.84;;;2.61;100.00
83308;BME280;73223;48.584;13.460;2023-12-07T08:03:59;97271.09;;;3.58;100.00
83308;BME280;73223;48.584;13.460;2023-12-07T08:06:24;97270.31;;;4.80;100.00
83308;BME280;73223;48.584;13.460;2023-12-07T08:08:49;97260.00;;;4.91;100.00
83308;BME280;73223;48.584;13.460;2023-12-07T08:11:15;97259.19;;;4.13;100.00
83308;BME280;73223;48.584;13.460;2023-12-07T08:13:40;97259.69;;;2.93;100.00
83308;BME280;73223;48.584;13.460;2023-12-07T08:16:07;97266.66;;;3.19;100.00
83308;BME280;73223;48.584;13.460;2023-12-07T08:18:34;97264.09;;;3.20;100.00
83308;BME280;73223;48.584;13.460;2023-12-07T08:20:59;97271.13;;;2.23;100.00
83308;BME280;73223;48.584;13.460;2023-12-07T08:23:24;97278.38;;;1.76;100.00
83308;BME280;73223;48.584;13.460;2023-12-07T08:25:50;97274.09;;;2.76;100.00
83308;BME280;73223;48.584;13.460;2023-12-07T08:28:15;97272.31;;;2.64;100.00
83308;BME280;73223;48.584;13.460;2023-12-07T08:30:40;97275.13;;;3.02;100.00
83308;BME280;73223;48.584;13.460;2023-12-07T08:33:05;97273.84;;;2.42;100.00
83308;BME280;73223;48.584;13.460;2023-12-07T08:35:31;97270.75;;;2.85;100.00
83308;BME280;73223;48.584;13.460;2023-12-07T08:37:56;97272.50;;;2.95;100.00
83308;BME280;73223;48.584;13.460;2023-12-07T08:40:21;97281.88;;;1.85;100.00
83308;BME280;73223;48.584;13.460;2023-12-07T08:42:47;97283.31;;;2.56;100.00
83308;BME280;73223;48.584;13.460;2023-12-07T08:45:13;97275.84;;;2.82;100.00
83308;BME280;73223;48.584;13.460;2023-12-07T08:47:39;97292.72;;;1.64;100.00
83308;BME280;73223;48.584;13.460;2023-12-07T08:50:04;97283.31;;;2.54;100.00
83308;BME280;73223;48.584;13.460;2023-12-07T08:52:30;97287.47;;;2.40;100.00
83308;BME280;73223;48.584;13.460;2023-12-07T08:54:55;97294.69;;;1.88;100.00
83308;BME280;73223;48.584;13.460;2023-12-07T08:57:20;97290.66;;;2.12;100.00
83308;BME280;73223;48.584;13.460;2023-12-07T08:59:46;97286.91;;;2.79;100.00
83308;BME280;73223;48.584;13.460;2023-12-07T09:02:11;97289.56;;;2.94;100.00
83308;BME280;73223;48.584;13.460;2023-12-07T09:04:37;97294.78;;;3.11;100.00
83308;BME280;73223;48.584;13.460;2023-12-07T09:07:03;97296.56;;;3.26;100.00
83308;BME280;73223;48.584;13.460;2023-12-07T09:09:29;97287.25;;;3.40;100.00
83308;BME280;73223;48.584;13.460;2023-12-07T09:11:54;97290.56;;;3.21;100.00
83308;BME280;73223;48.584;13.460;2023-12-07T09:14:19;97293.97;;;3.17;100.00
83308;BME280;73223;48.584;13.460;2023-12-07T09:16:45;97293.09;;;3.14;100.00
83308;BME280;73223;48.584;13.460;2023-12-07T09:19:13;97297.44;;;3.31;100.00
83308;BME280;73223;48.584;13.460;2023-12-07T09:21:40;97295.84;;;3.60;100.00
83308;BME280;73223;48.584;13.460;2023-12-07T09:24:05;97295.78;;;3.46;100.00
83308;BME280;73223;48.584;13.460;2023-12-07T09:26:31;97295.72;;;3.22;100.00
83308;BME280;73223;48.584;13.460;2023-12-07T09:28:57;97295.72;;;3.28;100.00
83308;BME280;73223;48.584;13.460;2023-12-07T09:31:22;97294.84;;;3.19;100.00
83308;BME280;73223;48.584;13.460;2023-12-07T09:33:47;97291.47;;;3.32;100.00
83308;BME280;73223;48.584;13.460;2023-12-07T09:36:16;97289.59;;;3.05;100.00
83308;BME280;73223;48.584;13.460;2023-12-07T09:38:43;97295.84;;;3.54;100.00
83308;BME280;73223;48.584;13.460;2023-12-07T09:41:08;97300.84;;;3.22;100.00
83308;BME280;73223;48.584;13.460;2023-12-07T09:43:34;97298.88;;;2.80;100.00
83308;BME280;73223;48.584;13.460;2023-12-07T09:45:59;97289.75;;;3.29;100.00
83308;BME280;73223;48.584;13.460;2023-12-07T09:48:25;97292.25;;;3.16;100.00
83308;BME280;73223;48.584;13.460;2023-12-07T09:50:51;97291.88;;;2.58;100.00
83308;BME280;73223;48.584;13.460;2023-12-07T09:53:17;97287.16;;;3.25;100.00
83308;BME280;73223;48.584;13.460;2023-12-07T09:55:42;97293.28;;;3.62;100.00
83308;BME280;73223;48.584;13.460;2023-12-07T09:58:08;97291.34;;;3.03;100.00
83308;BME280;73223;48.584;13.460;2023-12-07T10:00:33;97293.28;;;3.53;100.00
83308;BME280;73223;48.584;13.460;2023-12-07T10:02:59;97277.03;;;3.49;100.00
83308;BME280;73223;48.584;13.460;2023-12-07T10:05:24;97277.06;;;3.55;100.00
83308;BME280;73223;48.584;13.460;2023-12-07T10:07:50;97273.50;;;3.29;100.00
83308;BME280;73223;48.584;13.460;2023-12-07T10:10:16;97274.44;;;3.49;100.00
83308;BME280;73223;48.584;13.460;2023-12-07T10:15:16;97271.13;;;3.83;100.00
83308;BME280;73223;48.584;13.460;2023-12-07T10:17:58;97268.63;;;4.05;100.00
83308;BME280;73223;48.584;13.460;2023-12-07T10:20:27;97265.22;;;4.09;100.00
83308;BME280;73223;48.584;13.460;2023-12-07T10:23:06;97266.00;;;3.74;100.00
83308;BME280;73223;48.584;13.460;2023-12-07T10:25:36;97261.75;;;3.98;100.00
83308;BME280;73223;48.584;13.460;2023-12-07T10:28:01;97259.22;;;4.04;100.00
83308;BME280;73223;48.584;13.460;2023-12-07T10:30:31;97259.13;;;3.76;100.00
83308;BME280;73223;48.584;13.460;2023-12-07T10:32:57;97253.22;;;4.05;100.00
83308;BME280;73223;48.584;13.460;2023-12-07T10:35:22;97254.91;;;3.97;100.00
83308;BME280;73223;48.584;13.460;2023-12-07T10:37:47;97248.78;;;3.43;100.00
83308;BME280;73223;48.584;13.460;2023-12-07T10:40:13;97257.94;;;2.89;100.00
83308;BME280;73223;48.584;13.460;2023-12-07T10:42:41;97250.41;;;3.17;100.00
83308;BME280;73223;48.584;13.460;2023-12-07T10:45:07;97249.78;;;4.00;100.00
83308;BME280;73223;48.584;13.460;2023-12-07T10:47:37;97250.41;;;3.17;100.00
83308;BME280;73223;48.584;13.460;2023-12-07T10:50:07;97250.84;;;2.46;100.00
83308;BME280;73223;48.584;13.460;2023-12-07T10:52:37;97245.97;;;2.79;100.00
83308;BME280;73223;48.584;13.460;2023-12-07T10:55:20;97251.22;;;3.02;100.00
83308;BME280;73223;48.584;13.460;2023-12-07T10:57:46;97253.97;;;2.08;100.00
83308;BME280;73223;48.584;13.460;2023-12-07T11:00:12;97267.19;;;1.67;100.00
83308;BME280;73223;48.584;13.460;2023-12-07T11:02:38;97252.25;;;2.07;100.00
83308;BME280;73223;48.584;13.460;2023-12-07T11:05:04;97253.31;;;2.32;100.00
83308;BME280;73223;48.584;13.460;2023-12-07T11:07:42;97260.59;;;1.88;100.00
83308;BME280;73223;48.584;13.460;2023-12-07T11:10:21;97255.22;;;2.62;100.00
83308;BME280;73223;48.584;13.460;2023-12-07T11:12:53;97249.56;;;3.18;100.00
83308;BME280;73223;48.584;13.460;2023-12-07T11:15:21;97247.81;;;3.10;100.00
83308;BME280;73223;48.584;13.460;2023-12-07T11:17:51;97244.41;;;3.13;100.00
83308;BME280;73223;48.584;13.460;2023-12-07T11:20:19;97244.28;;;2.83;100.00
83308;BME280;73223;48.584;13.460;2023-12-07T11:22:44;97242.03;;;3.54;100.00
83308;BME280;73223;48.584;13.460;2023-12-07T11:25:10;97243.63;;;3.26;100.00
83308;BME280;73223;48.584;13.460;2023-12-07T11:27:35;97235.22;;;3.79;100.00
83308;BME280;73223;48.584;13.460;2023-12-07T11:32:29;97236.78;;;3.28;100.00
83308;BME280;73223;48.584;13.460;2023-12-07T11:35:01;97239.50;;;3.81;100.00
83308;BME280;73223;48.584;13.460;2023-12-07T11:38:03;97239.94;;;2.75;100.00
83308;BME280;73223;48.584;13.460;2023-12-07T11:40:30;97244.56;;;3.60;100.00
83308;BME280;73223;48.584;13.460;2023-12-07T11:42:56;97238.69;;;3.90;100.00
83308;BME280;73223;48.584;13.460;2023-12-07T11:45:40;97228.38;;;3.79;100.00
83308;BME280;73223;48.584;13.460;2023-12-07T11:48:11;97230.09;;;3.71;100.00
83308;BME280;73223;48.584;13.460;2023-12-07T11:51:05;97235.25;;;3.83;100.00
83308;BME280;73223;48.584;13.460;2023-12-07T11:53:35;97234.41;;;3.94;100.00
83308;BME280;73223;48.584;13.460;2023-12-07T11:56:06;97229.28;;;4.04;100.00
83308;BME280;73223;48.584;13.460;2023-12-07T11:58:33;97229.28;;;3.92;100.00
83308;BME280;73223;48.584;13.460;2023-12-07T12:00:59;97229.25;;;3.97;100.00
83308;BME280;73223;48.584;13.460;2023-12-07T12:03:26;97228.41;;;3.84;100.00
83308;BME280;73223;48.584;13.460;2023-12-07T12:05:52;97220.72;;;3.86;100.00
83308;BME280;73223;48.584;13.460;2023-12-07T12:08:18;97221.56;;;3.89;100.00
83308;BME280;73223;48.584;13.460;2023-12-07T12:10:44;97230.91;;;3.63;100.00
83308;BME280;73223;48.584;13.460;2023-12-07T12:13:10;97223.25;;;3.70;100.00
83308;BME280;73223;48.584;13.460;2023-12-07T12:15:35;97224.13;;;3.71;100.00
83308;BME280;73223;48.584;13.460;2023-12-07T12:18:00;97222.41;;;3.68;100.00
83308;BME280;73223;48.584;13.460;2023-12-07T12:20:27;97228.34;;;3.55;100.00
83308;BME280;73223;48.584;13.460;2023-12-07T12:22:53;97222.41;;;3.74;100.00
83308;BME280;73223;48.584;13.460;2023-12-07T12:25:23;97213.88;;;3.81;100.00
83308;BME280;73223;48.584;13.460;2023-12-07T12:27:52;97210.47;;;3.99;100.00
83308;BME280;73223;48.584;13.460;2023-12-07T12:30:18;97213.91;;;4.12;100.00
83308;BME280;73223;48.584;13.460;2023-12-07T12:32:44;97215.59;;;4.33;100.00
83308;BME280;73223;48.584;13.460;2023-12-07T12:35:10;97204.47;;;4.31;100.00
83308;BME280;73223;48.584;13.460;2023-12-07T12:37:38;97208.78;;;4.27;100.00
83308;BME280;73223;48.584;13.460;2023-12-07T12:40:07;97207.91;;;4.19;100.00
83308;BME280;73223;48.584;13.460;2023-12-07T12:42:33;97205.34;;;4.27;100.00
83308;BME280;73223;48.584;13.460;2023-12-07T12:44:58;97213.03;;;4.16;100.00
83308;BME280;73223;48.584;13.460;2023-12-07T12:47:24;97213.91;;;4.06;100.00
83308;BME280;73223;48.584;13.460;2023-12-07T12:49:49;97204.47;;;4.02;100.00
83308;BME280;73223;48.584;13.460;2023-12-07T12:52:16;97201.06;;;3.84;100.00